Terminal Aerodrome Forecast
Issued by NWS

Home | Current Version | Previous Version | Text Only | Print | Product List | Glossary On
Versions: 1 2 3 4 5 6 7 8 9 10 11 12 13 14 15 16 17 18 19 20 21 22 23 24 25
000
FTUS44 KOUN 061737
TAFPNC
TAF
KPNC 061737Z 0618/0718 15018G25KT P6SM FEW009 BKN015
     FM062000 15019G26KT P6SM BKN025
     FM070000 16015G25KT P6SM OVC050
      TEMPO 0700/0704 VRB25G35KT 3SM +TSRA BKN020CB
     FM070900 15015G22KT P6SM OVC012=

USA.gov is the U.S. government's official web portal to all federal, state and local government web resources and services.